Time;durP1;ratioP1;P1;durP2;ratioP2;P2;SDS_P1;SDS_P2;PMS_P1;PMS_P2;Temp;Humidity;BMP_temperature;BMP_pressure;BME280_temperature;BME280_humidity;BME280_pressure;Samples;Min_cycle;Max_cycle;Signal;HPM_P1;HPM_P2
2021/10/08 00:00:48;;;;;;;3.05;2.45;;;17.20;55.60;;;;;;5034588;28;20044;-61
2021/10/08 00:03:14;;;;;;;3.42;2.67;;;17.20;55.50;;;;;;5014349;28;20107;-61
2021/10/08 00:05:40;;;;;;;3.65;2.55;;;17.10;55.50;;;;;;5026249;28;20030;-61
2021/10/08 00:08:06;;;;;;;3.72;2.92;;;17.10;56.00;;;;;;5031013;28;20056;-61
2021/10/08 00:10:32;;;;;;;3.92;2.50;;;17.00;55.60;;;;;;5034821;28;20084;-61
2021/10/08 00:12:58;;;;;;;5.53;2.95;;;16.90;56.00;;;;;;5033654;28;20442;-61
2021/10/08 00:15:24;;;;;;;3.50;2.70;;;16.80;52.10;;;;;;5034207;28;20046;-61
2021/10/08 00:17:49;;;;;;;3.42;2.50;;;16.70;51.90;;;;;;5033502;28;20121;-62
2021/10/08 00:20:15;;;;;;;4.72;2.45;;;16.60;52.30;;;;;;5034475;28;20092;-61
2021/10/08 00:22:40;;;;;;;6.00;3.17;;;16.60;52.10;;;;;;5033983;28;20037;-62
2021/10/08 00:25:06;;;;;;;5.70;2.78;;;16.70;52.30;;;;;;5034029;28;20128;-62
2021/10/08 00:27:32;;;;;;;5.78;3.17;;;16.60;52.50;;;;;;5032919;28;20498;-62
2021/10/08 00:29:57;;;;;;;3.67;2.67;;;16.60;52.60;;;;;;5033899;28;20445;-61
2021/10/08 00:32:23;;;;;;;5.25;2.67;;;16.50;52.80;;;;;;5033438;28;20037;-59
2021/10/08 00:34:48;;;;;;;5.80;3.10;;;16.60;52.70;;;;;;5018945;28;20045;-60
2021/10/08 00:37:15;;;;;;;6.18;2.97;;;16.50;52.80;;;;;;5033514;28;20041;-61
2021/10/08 00:39:41;;;;;;;6.00;3.42;;;16.50;53.30;;;;;;5034378;28;20030;-61
2021/10/08 00:42:06;;;;;;;5.28;3.60;;;16.50;52.90;;;;;;5033487;28;20037;-60
2021/10/08 00:44:32;;;;;;;4.35;3.30;;;16.50;53.10;;;;;;5033822;28;20037;-60
2021/10/08 00:46:59;;;;;;;6.13;3.15;;;16.40;53.10;;;;;;5033082;28;20080;-60
2021/10/08 00:49:24;;;;;;;5.88;3.30;;;16.40;53.00;;;;;;5034504;28;20038;-60
2021/10/08 00:51:50;;;;;;;6.13;3.13;;;16.40;53.50;;;;;;5033291;28;20053;-60
2021/10/08 00:54:15;;;;;;;5.93;2.85;;;16.40;53.90;;;;;;5033269;28;20513;-60
2021/10/08 00:56:41;;;;;;;7.07;3.38;;;16.30;54.00;;;;;;5033079;28;20156;-61
2021/10/08 00:59:07;;;;;;;6.90;3.50;;;16.30;54.10;;;;;;5033249;28;20029;-60
2021/10/08 01:01:33;;;;;;;4.43;3.30;;;16.30;54.10;;;;;;5031902;28;20102;-60
2021/10/08 01:03:58;;;;;;;4.68;2.67;;;16.30;53.70;;;;;;5030032;28;20033;-60
2021/10/08 01:06:24;;;;;;;4.88;2.83;;;16.30;53.90;;;;;;5032206;28;20129;-60
2021/10/08 01:08:50;;;;;;;6.15;3.20;;;16.30;54.00;;;;;;5033912;28;20079;-61
2021/10/08 01:11:19;;;;;;;6.15;3.40;;;16.30;54.20;;;;;;5033802;28;20034;-60
2021/10/08 01:13:46;;;;;;;4.82;2.75;;;16.20;54.60;;;;;;5031769;28;20034;-60
2021/10/08 01:16:12;;;;;;;4.47;3.03;;;16.20;54.10;;;;;;5033281;28;20045;-61
2021/10/08 01:18:37;;;;;;;5.53;2.85;;;16.20;53.90;;;;;;5032872;28;20037;-61
2021/10/08 01:21:03;;;;;;;4.35;2.40;;;16.20;53.00;;;;;;5032862;28;20398;-60
2021/10/08 01:23:28;;;;;;;5.10;3.17;;;16.20;53.90;;;;;;5032354;28;20096;-60
2021/10/08 01:25:54;;;;;;;2.90;2.60;;;16.20;53.00;;;;;;5032646;28;20026;-60
2021/10/08 01:28:20;;;;;;;4.82;2.97;;;16.10;50.90;;;;;;5032304;28;20368;-60
2021/10/08 01:30:47;;;;;;;6.40;2.80;;;16.10;51.80;;;;;;5032809;28;20336;-60
2021/10/08 01:33:12;;;;;;;5.03;2.92;;;16.20;52.10;;;;;;5030891;28;20140;-61
2021/10/08 01:35:38;;;;;;;4.90;3.20;;;16.20;52.20;;;;;;5031919;28;20504;-61
2021/10/08 01:38:04;;;;;;;5.72;2.95;;;16.10;52.80;;;;;;5031334;28;20037;-60
2021/10/08 01:40:29;;;;;;;4.20;2.92;;;16.20;52.50;;;;;;5033194;28;20064;-61
2021/10/08 01:42:55;;;;;;;3.20;2.67;;;16.20;51.00;;;;;;5013894;28;20037;-60
2021/10/08 01:45:21;;;;;;;3.85;2.38;;;16.20;51.30;;;;;;5014929;28;20037;-61
2021/10/08 01:47:46;;;;;;;4.55;2.45;;;16.20;51.40;;;;;;5014604;28;20510;-61
2021/10/08 01:50:12;;;;;;;4.57;2.15;;;16.20;51.70;;;;;;5032026;28;20056;-61
2021/10/08 01:52:38;;;;;;;3.10;2.00;;;16.20;51.60;;;;;;5032216;28;20041;-61
2021/10/08 01:55:04;;;;;;;3.42;2.20;;;16.30;51.30;;;;;;5032733;28;20514;-61
2021/10/08 01:57:30;;;;;;;3.25;1.90;;;16.30;51.30;;;;;;5031345;28;20041;-61
2021/10/08 01:59:55;;;;;;;2.92;1.98;;;16.50;51.00;;;;;;5032860;28;20440;-61
2021/10/08 02:02:21;;;;;;;4.45;2.30;;;16.40;50.80;;;;;;5022661;28;20069;-61
2021/10/08 02:04:47;;;;;;;2.25;1.90;;;16.50;50.80;;;;;;5032337;28;20036;-61
2021/10/08 02:07:14;;;;;;;2.53;1.63;;;16.50;50.90;;;;;;5032004;28;20495;-61
2021/10/08 02:09:40;;;;;;;4.32;1.70;;;16.40;49.90;;;;;;5033241;28;20041;-61
2021/10/08 02:12:05;;;;;;;2.88;1.40;;;16.50;50.60;;;;;;5031967;28;20076;-61
2021/10/08 02:14:31;;;;;;;1.92;1.63;;;16.50;50.30;;;;;;5032079;28;20087;-61
2021/10/08 02:16:56;;;;;;;4.57;1.45;;;16.50;50.10;;;;;;5031594;28;20045;-61
2021/10/08 02:19:22;;;;;;;4.43;1.60;;;16.50;50.20;;;;;;5033022;28;20056;-61
2021/10/08 02:21:49;;;;;;;2.58;1.63;;;16.60;49.60;;;;;;5030922;28;20449;-61
2021/10/08 02:24:15;;;;;;;2.67;1.35;;;16.50;50.40;;;;;;5014230;28;20029;-61
2021/10/08 02:26:42;;;;;;;1.17;1.08;;;16.50;49.90;;;;;;5032660;28;20124;-61
2021/10/08 02:29:08;;;;;;;1.58;1.25;;;16.50;49.60;;;;;;5032133;28;20029;-61
2021/10/08 02:31:34;;;;;;;1.35;1.20;;;16.50;49.10;;;;;;5030576;28;20080;-61
2021/10/08 02:33:59;;;;;;;1.30;1.20;;;16.50;49.30;;;;;;5030529;28;20037;-61
2021/10/08 02:36:25;;;;;;;1.95;1.17;;;16.50;49.50;;;;;;5031491;28;20025;-61
2021/10/08 02:38:50;;;;;;;4.45;1.55;;;16.50;49.30;;;;;;5031760;28;20044;-61
2021/10/08 02:41:16;;;;;;;3.92;1.63;;;16.50;49.50;;;;;;5023278;28;20052;-61
2021/10/08 02:43:42;;;;;;;1.30;1.17;;;16.50;49.30;;;;;;5027324;28;20049;-61
2021/10/08 02:46:07;;;;;;;1.35;1.00;;;16.50;49.40;;;;;;5032295;28;20029;-61
2021/10/08 02:48:36;;;;;;;3.45;1.33;;;16.60;48.70;;;;;;5031340;28;20117;-61
2021/10/08 02:51:03;;;;;;;3.05;1.13;;;16.60;49.80;;;;;;5033350;28;20438;-61
2021/10/08 02:53:29;;;;;;;1.33;1.10;;;16.50;49.30;;;;;;5017395;28;20282;-61
2021/10/08 02:55:55;;;;;;;2.03;1.30;;;16.50;49.00;;;;;;5036235;28;20650;-61
2021/10/08 02:58:20;;;;;;;1.52;1.10;;;16.60;48.90;;;;;;5035388;28;20120;-61
2021/10/08 03:00:46;;;;;;;2.60;0.90;;;16.50;48.50;;;;;;5036355;28;20034;-61
2021/10/08 03:03:12;;;;;;;2.22;1.30;;;16.60;49.10;;;;;;5031243;28;20112;-61
2021/10/08 03:05:37;;;;;;;4.00;1.10;;;16.60;48.90;;;;;;5032317;28;20487;-61
2021/10/08 03:08:03;;;;;;;3.15;1.60;;;16.50;48.40;;;;;;5034351;28;20091;-61
2021/10/08 03:10:29;;;;;;;1.63;1.40;;;16.60;48.90;;;;;;5036160;28;20057;-61
2021/10/08 03:12:54;;;;;;;3.42;1.65;;;16.50;49.00;;;;;;5034815;28;20037;-61
2021/10/08 03:15:20;;;;;;;2.90;1.70;;;16.50;49.00;;;;;;5035452;28;20041;-61
2021/10/08 03:17:46;;;;;;;2.55;2.03;;;16.60;49.50;;;;;;5034027;28;20073;-61
2021/10/08 03:20:12;;;;;;;4.43;2.15;;;16.60;49.90;;;;;;5018488;28;20609;-61
2021/10/08 03:22:38;;;;;;;5.80;2.47;;;16.60;49.80;;;;;;5033956;28;20113;-61
2021/10/08 03:25:07;;;;;;;2.88;2.45;;;16.60;50.40;;;;;;5035338;28;20486;-61
2021/10/08 03:27:34;;;;;;;4.18;2.38;;;16.60;50.80;;;;;;5034259;28;20132;-61
2021/10/08 03:30:00;;;;;;;4.57;2.75;;;16.50;50.60;;;;;;5035495;28;20040;-61
2021/10/08 03:32:25;;;;;;;4.03;2.80;;;16.50;50.90;;;;;;5033426;28;20158;-62
2021/10/08 03:34:52;;;;;;;4.05;2.70;;;16.50;51.40;;;;;;5034378;28;20650;-61
2021/10/08 03:37:20;;;;;;;4.20;3.22;;;16.40;51.20;;;;;;5033690;28;20100;-62
2021/10/08 03:39:48;;;;;;;6.15;3.28;;;16.50;51.70;;;;;;5034539;28;20071;-62
2021/10/08 03:42:17;;;;;;;3.45;3.15;;;16.50;52.00;;;;;;5015817;28;20449;-61
2021/10/08 03:44:50;;;;;;;4.10;3.10;;;16.50;52.30;;;;;;5034517;28;20390;-62
2021/10/08 03:47:22;;;;;;;3.97;3.58;;;16.40;52.50;;;;;;5032849;28;20045;-61
2021/10/08 03:49:47;;;;;;;5.25;4.05;;;16.40;52.90;;;;;;5035427;28;20061;-61
2021/10/08 03:52:13;;;;;;;6.63;4.10;;;16.50;53.10;;;;;;5033880;28;20084;-62
2021/10/08 03:54:39;;;;;;;5.93;4.18;;;16.50;53.40;;;;;;5034206;28;20046;-62
2021/10/08 03:57:04;;;;;;;4.53;4.13;;;16.50;53.50;;;;;;5035213;28;20049;-62
2021/10/08 03:59:30;;;;;;;6.50;4.13;;;16.40;53.60;;;;;;5034018;28;20030;-61
2021/10/08 04:01:56;;;;;;;9.75;3.97;;;16.40;53.80;;;;;;5028134;28;20045;-62
2021/10/08 04:04:21;;;;;;;5.93;4.20;;;16.50;54.10;;;;;;5032433;28;22203;-62
2021/10/08 04:06:47;;;;;;;7.47;4.15;;;16.50;54.00;;;;;;5034746;28;20087;-62
2021/10/08 04:09:13;;;;;;;5.22;3.78;;;16.40;53.60;;;;;;5033672;28;20026;-61
2021/10/08 04:11:40;;;;;;;5.72;4.43;;;16.40;54.10;;;;;;5035586;28;20091;-62
2021/10/08 04:14:05;;;;;;;7.97;3.38;;;16.40;54.00;;;;;;5033134;28;20029;-61
2021/10/08 04:16:31;;;;;;;5.85;3.80;;;16.40;53.90;;;;;;5017868;28;20125;-62
2021/10/08 04:18:56;;;;;;;5.85;3.92;;;16.30;53.90;;;;;;5033810;28;20052;-62
2021/10/08 04:21:22;;;;;;;7.05;3.60;;;16.30;54.20;;;;;;5034200;28;20045;-62
2021/10/08 04:23:48;;;;;;;8.20;4.18;;;16.30;54.20;;;;;;5033613;28;20133;-62
2021/10/08 04:26:13;;;;;;;6.85;4.40;;;16.30;54.30;;;;;;5034297;28;20037;-62
2021/10/08 04:28:39;;;;;;;5.63;4.30;;;16.40;54.60;;;;;;5014996;28;20384;-62
2021/10/08 04:31:05;;;;;;;6.93;4.47;;;16.30;54.80;;;;;;5034860;28;20029;-62
2021/10/08 04:33:58;;;;;;;4.90;3.88;;;16.30;54.90;;;;;;5024938;28;20049;-61
2021/10/08 04:36:24;;;;;;;6.00;4.13;;;16.30;55.40;;;;;;5032674;28;20030;-61
2021/10/08 04:38:49;;;;;;;7.13;4.63;;;16.30;54.80;;;;;;5011818;28;20041;-61
2021/10/08 04:41:15;;;;;;;5.85;4.38;;;16.20;54.70;;;;;;5014473;28;20129;-61
2021/10/08 04:43:41;;;;;;;7.00;4.85;;;16.30;55.30;;;;;;5024172;28;20124;-61
2021/10/08 04:46:06;;;;;;;5.68;4.30;;;16.20;55.10;;;;;;5032658;28;20557;-61
2021/10/08 04:48:32;;;;;;;9.40;3.95;;;16.30;55.10;;;;;;5015102;28;20045;-62
2021/10/08 04:50:57;;;;;;;5.82;3.88;;;16.30;54.90;;;;;;5033607;28;20048;-61
2021/10/08 04:53:24;;;;;;;6.72;4.30;;;16.20;54.70;;;;;;5032875;28;20065;-62
2021/10/08 04:55:51;;;;;;;7.05;3.97;;;16.20;55.00;;;;;;5032767;28;20100;-61
2021/10/08 04:58:17;;;;;;;7.45;4.30;;;16.20;54.90;;;;;;5032216;28;20041;-61
2021/10/08 05:00:45;;;;;;;7.70;4.20;;;16.20;54.90;;;;;;5033330;28;20030;-62
2021/10/08 05:03:15;;;;;;;8.68;4.25;;;16.20;54.90;;;;;;5015395;28;20041;-62
2021/10/08 05:05:53;;;;;;;5.28;4.28;;;16.20;55.00;;;;;;5032207;28;20505;-62
2021/10/08 05:08:20;;;;;;;8.70;4.00;;;16.20;55.40;;;;;;5032088;28;20048;-61
2021/10/08 05:10:47;;;;;;;6.25;4.20;;;16.10;54.20;;;;;;5033498;28;20095;-62
2021/10/08 05:13:13;;;;;;;6.82;4.38;;;16.20;54.80;;;;;;5031644;28;20046;-61
2021/10/08 05:15:39;;;;;;;5.85;4.50;;;16.20;54.70;;;;;;5032178;28;20091;-62
2021/10/08 05:18:05;;;;;;;6.68;4.30;;;16.10;54.40;;;;;;5032387;28;20072;-62
2021/10/08 05:20:31;;;;;;;6.20;4.68;;;16.10;54.70;;;;;;5032281;28;20041;-61
2021/10/08 05:22:56;;;;;;;9.07;3.88;;;16.20;54.70;;;;;;5014123;28;20037;-62
2021/10/08 05:25:22;;;;;;;7.05;3.90;;;16.30;54.80;;;;;;5033088;28;20038;-61
2021/10/08 05:27:48;;;;;;;7.72;4.30;;;16.20;54.70;;;;;;5031847;28;20060;-62
2021/10/08 05:30:14;;;;;;;6.75;4.32;;;16.20;54.90;;;;;;5016784;28;20044;-62
2021/10/08 05:32:40;;;;;;;6.07;4.07;;;16.20;54.80;;;;;;5031872;28;20418;-61
2021/10/08 05:35:07;;;;;;;8.20;4.13;;;16.20;54.90;;;;;;5032858;28;20030;-61
2021/10/08 05:37:33;;;;;;;8.30;4.45;;;16.10;54.80;;;;;;5031612;28;20069;-62
2021/10/08 05:39:59;;;;;;;6.93;4.05;;;16.10;55.00;;;;;;5033086;28;20038;-62
2021/10/08 05:42:24;;;;;;;9.00;4.30;;;16.20;55.00;;;;;;5030871;28;20064;-62
2021/10/08 05:44:50;;;;;;;8.73;4.22;;;16.20;55.10;;;;;;5031894;28;20463;-62
2021/10/08 05:47:15;;;;;;;8.68;4.78;;;16.20;55.00;;;;;;5030015;28;20041;-62
2021/10/08 05:49:41;;;;;;;8.55;5.15;;;16.20;54.90;;;;;;5032968;28;20430;-61
2021/10/08 05:52:06;;;;;;;6.95;4.38;;;16.20;54.80;;;;;;5031313;28;20029;-61
2021/10/08 05:54:32;;;;;;;7.00;4.40;;;16.20;54.50;;;;;;5032528;28;20128;-61
2021/10/08 05:56:58;;;;;;;6.43;5.03;;;16.20;54.60;;;;;;5024976;28;20037;-61
2021/10/08 05:59:23;;;;;;;9.13;3.85;;;16.20;54.50;;;;;;5027633;28;20061;-61
2021/10/08 06:01:49;;;;;;;6.65;4.47;;;16.20;53.90;;;;;;5030040;28;20510;-61
2021/10/08 06:04:15;;;;;;;7.85;4.13;;;16.20;54.30;;;;;;5031723;28;20025;-60
2021/10/08 06:06:40;;;;;;;5.60;4.07;;;16.10;53.50;;;;;;5029088;28;20371;-60
2021/10/08 06:09:06;;;;;;;9.43;4.72;;;16.20;53.50;;;;;;5031608;28;20042;-61
2021/10/08 06:11:32;;;;;;;7.95;4.60;;;16.20;53.60;;;;;;5031759;28;20397;-60
2021/10/08 06:13:58;;;;;;;8.68;4.60;;;16.20;53.60;;;;;;5031754;28;20434;-60
2021/10/08 06:16:24;;;;;;;6.47;4.68;;;16.30;53.80;;;;;;5030508;28;20087;-60
2021/10/08 06:18:49;;;;;;;10.25;4.03;;;16.40;53.60;;;;;;5029803;28;20132;-60
2021/10/08 06:21:15;;;;;;;9.07;4.78;;;16.30;53.30;;;;;;5032018;28;20044;-60
2021/10/08 06:23:40;;;;;;;7.88;4.85;;;16.40;53.60;;;;;;5031199;28;20064;-62
2021/10/08 06:26:06;;;;;;;8.60;4.88;;;16.40;53.20;;;;;;5035049;28;20033;-61
2021/10/08 06:28:32;;;;;;;6.28;4.65;;;16.40;52.80;;;;;;5033671;28;20486;-61
2021/10/08 06:30:58;;;;;;;8.25;4.90;;;16.40;53.30;;;;;;5030252;28;20037;-61
2021/10/08 06:33:23;;;;;;;10.10;4.40;;;16.50;53.40;;;;;;5033456;28;20037;-61
2021/10/08 06:35:49;;;;;;;8.65;4.97;;;16.50;53.20;;;;;;5033489;28;20379;-61
2021/10/08 06:38:15;;;;;;;7.95;4.57;;;16.40;52.80;;;;;;5030127;28;20037;-61
2021/10/08 06:40:41;;;;;;;6.82;4.95;;;16.40;52.80;;;;;;5034809;28;20112;-61
2021/10/08 06:43:08;;;;;;;12.55;4.78;;;16.40;52.60;;;;;;5035048;28;20163;-61
2021/10/08 06:45:34;;;;;;;8.57;4.65;;;16.50;52.70;;;;;;5034751;28;20045;-61
2021/10/08 06:48:00;;;;;;;11.02;5.88;;;16.50;53.00;;;;;;5017149;28;20056;-61
2021/10/08 06:50:26;;;;;;;8.23;4.55;;;16.60;52.40;;;;;;5036031;28;20116;-61
2021/10/08 06:52:52;;;;;;;8.43;4.70;;;16.50;51.90;;;;;;5034962;28;20041;-61
2021/10/08 06:55:18;;;;;;;11.55;4.15;;;16.60;52.70;;;;;;5035215;28;20121;-61
2021/10/08 06:57:43;;;;;;;7.43;4.22;;;16.70;52.40;;;;;;5032791;28;20068;-61
2021/10/08 07:00:10;;;;;;;6.05;4.20;;;16.70;51.60;;;;;;5032945;28;20060;-61
2021/10/08 07:02:53;;;;;;;7.68;3.97;;;16.70;51.90;;;;;;5032121;28;20064;-61
2021/10/08 07:05:21;;;;;;;6.93;4.03;;;16.80;51.90;;;;;;5017449;28;20033;-61
2021/10/08 07:07:46;;;;;;;9.98;4.90;;;16.80;51.80;;;;;;5033331;28;20038;-61
2021/10/08 07:10:13;;;;;;;4.25;3.45;;;16.80;51.00;;;;;;5033548;28;20029;-61
2021/10/08 07:12:39;;;;;;;7.03;4.38;;;16.80;51.50;;;;;;5031450;28;20498;-61
2021/10/08 07:15:08;;;;;;;6.60;4.20;;;16.90;51.50;;;;;;5033442;28;20049;-61
2021/10/08 07:17:38;;;;;;;7.43;3.92;;;16.90;51.50;;;;;;5033210;28;20035;-61
2021/10/08 07:20:04;;;;;;;7.38;4.47;;;16.70;49.40;;;;;;5032456;28;20038;-61
2021/10/08 07:22:30;;;;;;;8.18;3.83;;;16.60;51.00;;;;;;5033413;28;20064;-61
2021/10/08 07:24:56;;;;;;;7.78;4.20;;;16.70;51.30;;;;;;5034602;28;20376;-61
2021/10/08 07:27:21;;;;;;;9.57;3.72;;;16.80;51.60;;;;;;5033343;28;20041;-61
2021/10/08 07:29:48;;;;;;;7.35;3.47;;;16.80;50.90;;;;;;5015637;28;20042;-61
2021/10/08 07:32:14;;;;;;;13.02;4.43;;;16.90;50.90;;;;;;5033627;28;20033;-61
2021/10/08 07:34:40;;;;;;;4.82;4.10;;;16.90;50.70;;;;;;5031523;28;20037;-61
2021/10/08 07:37:06;;;;;;;8.10;5.03;;;17.00;50.80;;;;;;5032299;28;21350;-61
2021/10/08 07:39:31;;;;;;;10.30;5.55;;;16.90;50.40;;;;;;5033990;28;20038;-61
2021/10/08 07:41:57;;;;;;;6.28;4.60;;;16.90;50.80;;;;;;5033113;28;20148;-61
2021/10/08 07:44:23;;;;;;;8.30;4.28;;;16.90;50.70;;;;;;5033201;28;20485;-61
2021/10/08 07:46:51;;;;;;;7.32;3.75;;;16.90;50.70;;;;;;5032529;28;20033;-61
2021/10/08 07:49:16;;;;;;;11.13;4.22;;;17.00;50.80;;;;;;5032458;28;20033;-61
2021/10/08 07:51:42;;;;;;;6.43;4.03;;;17.00;50.20;;;;;;5033023;28;20104;-61
2021/10/08 07:54:08;;;;;;;5.85;4.00;;;17.00;50.30;;;;;;5032405;28;20095;-61
2021/10/08 07:56:34;;;;;;;6.50;3.85;;;16.90;49.40;;;;;;5027603;28;20048;-60
2021/10/08 07:59:03;;;;;;;6.28;4.05;;;16.90;49.50;;;;;;5031030;28;20430;-61
2021/10/08 08:01:28;;;;;;;10.48;3.95;;;16.90;48.20;;;;;;5033671;28;20087;-61
2021/10/08 08:03:54;;;;;;;7.15;4.32;;;16.90;50.10;;;;;;5032111;28;20038;-61
2021/10/08 08:06:20;;;;;;;8.38;3.97;;;16.90;50.10;;;;;;5033604;28;20129;-61
2021/10/08 08:08:45;;;;;;;9.98;4.18;;;16.90;49.00;;;;;;5032657;28;20044;-61
2021/10/08 08:11:11;;;;;;;9.25;4.15;;;16.90;50.50;;;;;;5033636;28;20025;-61
2021/10/08 08:13:36;;;;;;;9.05;4.88;;;16.90;48.90;;;;;;5032329;28;20466;-61
2021/10/08 08:16:02;;;;;;;11.02;4.68;;;16.70;48.90;;;;;;5033625;28;20042;-60
2021/10/08 08:18:28;;;;;;;11.07;5.50;;;16.90;50.30;;;;;;5032719;28;20073;-61
2021/10/08 08:20:53;;;;;;;10.30;5.88;;;17.00;49.90;;;;;;5033984;28;20402;-61
2021/10/08 08:23:19;;;;;;;10.40;5.68;;;16.90;50.20;;;;;;5032035;28;20076;-60
2021/10/08 08:25:45;;;;;;;10.00;5.68;;;17.10;50.50;;;;;;5033557;28;20505;-61
2021/10/08 08:28:11;;;;;;;9.90;6.07;;;17.00;49.70;;;;;;5031127;28;20045;-60
2021/10/08 08:30:40;;;;;;;10.15;5.38;;;17.00;50.10;;;;;;5032906;28;20037;-60
2021/10/08 08:33:06;;;;;;;10.30;5.97;;;17.00;49.70;;;;;;5027877;28;20064;-61
2021/10/08 08:35:32;;;;;;;10.75;5.53;;;17.20;50.60;;;;;;5034151;28;20095;-61
2021/10/08 08:37:57;;;;;;;8.63;5.22;;;17.20;50.80;;;;;;5014870;28;20393;-60
2021/10/08 08:40:25;;;;;;;11.82;5.13;;;17.20;49.20;;;;;;5033966;28;20092;-61
2021/10/08 08:42:55;;;;;;;10.35;4.85;;;17.20;50.00;;;;;;5031112;28;20036;-60
2021/10/08 08:45:21;;;;;;;7.57;5.45;;;17.10;49.80;;;;;;5033162;28;20119;-60
2021/10/08 08:47:56;;;;;;;6.50;4.55;;;17.10;48.60;;;;;;5032907;28;20495;-62
2021/10/08 08:50:22;;;;;;;6.90;4.80;;;17.00;47.20;;;;;;5033182;28;20033;-60
2021/10/08 08:52:47;;;;;;;11.52;4.85;;;17.10;49.50;;;;;;5032319;28;20422;-60
2021/10/08 08:55:13;;;;;;;7.00;4.70;;;17.10;48.90;;;;;;5034113;28;20029;-60
2021/10/08 08:57:38;;;;;;;7.63;4.15;;;17.00;48.10;;;;;;5031171;28;20745;-60
2021/10/08 09:00:08;;;;;;;7.13;3.90;;;17.00;47.80;;;;;;5032547;28;20467;-60
2021/10/08 09:02:36;;;;;;;6.45;3.85;;;17.00;49.00;;;;;;5032567;28;20060;-60
2021/10/08 09:05:03;;;;;;;5.47;3.85;;;17.10;49.50;;;;;;5033051;28;20096;-60
2021/10/08 09:07:34;;;;;;;6.15;4.15;;;17.20;48.70;;;;;;5030993;28;20033;-60
2021/10/08 09:10:21;;;;;;;8.85;4.03;;;17.10;48.30;;;;;;5031854;28;20041;-60
2021/10/08 09:12:48;;;;;;;6.35;3.53;;;17.20;47.20;;;;;;5014036;28;20033;-60
2021/10/08 09:15:16;;;;;;;7.03;3.58;;;17.20;49.30;;;;;;5032097;28;20048;-60
2021/10/08 09:17:42;;;;;;;10.75;4.25;;;17.30;48.50;;;;;;5029955;28;20513;-60
2021/10/08 09:20:10;;;;;;;8.32;5.55;;;17.30;48.70;;;;;;5032174;28;20121;-60
2021/10/08 09:22:41;;;;;;;9.15;4.55;;;17.40;48.90;;;;;;5030619;28;20049;-61
2021/10/08 09:25:26;;;;;;;8.82;4.18;;;17.50;48.30;;;;;;5031581;28;20030;-61
2021/10/08 09:31:16;;;;;;;10.23;3.67;;;17.50;46.80;;;;;;5030284;28;20115;-61
2021/10/08 09:33:41;;;;;;;7.78;3.60;;;17.50;45.80;;;;;;5032285;28;20029;-60
2021/10/08 09:36:13;;;;;;;4.68;2.92;;;17.50;46.60;;;;;;5032363;28;20040;-61
2021/10/08 09:38:42;;;;;;;6.50;3.13;;;17.60;47.60;;;;;;5024041;28;20072;-60
2021/10/08 09:41:07;;;;;;;4.40;3.08;;;17.70;47.20;;;;;;5015480;28;20080;-61
2021/10/08 09:43:33;;;;;;;4.50;3.20;;;17.70;46.80;;;;;;5028152;28;20113;-60
2021/10/08 09:46:00;;;;;;;5.38;3.17;;;17.80;46.70;;;;;;5028818;28;20038;-60
2021/10/08 09:48:41;;;;;;;7.93;2.88;;;18.00;46.20;;;;;;5029695;28;20049;-61
2021/10/08 09:51:10;;;;;;;4.68;3.35;;;17.90;46.20;;;;;;5026088;28;20505;-60
2021/10/08 09:53:37;;;;;;;5.78;3.47;;;17.90;45.40;;;;;;5027189;28;20393;-61
2021/10/08 09:56:37;;;;;;;3.97;2.80;;;18.10;45.30;;;;;;5031554;28;20116;-60
2021/10/08 09:59:05;;;;;;;3.72;2.35;;;18.10;42.60;;;;;;5027377;28;20486;-61
2021/10/08 10:01:33;;;;;;;6.57;3.00;;;18.10;44.50;;;;;;5027787;28;20121;-61
2021/10/08 10:04:00;;;;;;;3.65;2.75;;;18.10;44.60;;;;;;5031544;28;20063;-60
2021/10/08 10:06:26;;;;;;;4.00;2.80;;;18.20;43.80;;;;;;5031675;28;20067;-61
2021/10/08 10:08:52;;;;;;;3.90;2.78;;;18.50;43.40;;;;;;5015092;28;20048;-60
2021/10/08 10:11:23;;;;;;;4.15;2.95;;;18.40;43.20;;;;;;5031824;28;20037;-59
2021/10/08 10:13:52;;;;;;;6.53;3.15;;;18.40;43.60;;;;;;5013407;28;20053;-60
2021/10/08 10:16:19;;;;;;;5.63;3.25;;;18.30;42.00;;;;;;5030588;28;20069;-60
2021/10/08 10:18:50;;;;;;;5.47;2.92;;;18.50;43.20;;;;;;5031244;28;20462;-60
2021/10/08 10:21:20;;;;;;;5.75;3.53;;;18.40;42.70;;;;;;5032112;28;20095;-60
2021/10/08 10:23:46;;;;;;;5.65;3.42;;;18.50;41.00;;;;;;5031873;28;20499;-60
2021/10/08 10:26:12;;;;;;;5.95;3.80;;;18.70;42.90;;;;;;5025752;28;20116;-60
2021/10/08 10:28:38;;;;;;;4.68;3.50;;;18.70;41.10;;;;;;5031797;28;20546;-60
2021/10/08 10:31:05;;;;;;;6.50;4.18;;;18.80;38.90;;;;;;5031776;28;20033;-60
2021/10/08 10:33:31;;;;;;;7.80;4.55;;;18.90;43.20;;;;;;5031664;28;20163;-60
2021/10/08 10:36:01;;;;;;;7.22;4.43;;;19.10;44.20;;;;;;5030726;28;20026;-60
2021/10/08 10:38:31;;;;;;;9.13;4.55;;;19.10;40.60;;;;;;5031369;28;20037;-60
2021/10/08 10:41:09;;;;;;;10.82;4.70;;;19.20;38.70;;;;;;5032233;28;20533;-60
2021/10/08 10:43:41;;;;;;;6.72;4.68;;;19.40;38.90;;;;;;5031556;28;20034;-60
2021/10/08 10:46:39;;;;;;;7.70;4.20;;;19.70;38.60;;;;;;5031297;28;20459;-60
2021/10/08 10:49:24;;;;;;;4.25;3.60;;;19.70;37.30;;;;;;5030312;28;20037;-60
2021/10/08 10:51:56;;;;;;;6.25;4.07;;;19.70;38.50;;;;;;5031569;28;20102;-59
2021/10/08 10:55:09;;;;;;;5.95;4.10;;;19.70;38.70;;;;;;5030588;28;20033;-60
2021/10/08 10:57:31;;;;;;;6.05;4.28;;;19.80;37.90;;;;;;5026203;28;20037;-60
2021/10/08 11:00:23;;;;;;;6.53;4.47;;;19.70;40.10;;;;;;5031203;28;20045;-59
2021/10/08 11:03:12;;;;;;;5.95;4.50;;;19.50;37.10;;;;;;4999573;28;20462;-60
2021/10/08 11:06:08;;;;;;;8.55;4.63;;;19.60;38.90;;;;;;5030012;28;20033;-60
2021/10/08 11:08:35;;;;;;;6.68;4.50;;;19.50;39.20;;;;;;5017934;28;20041;-61
2021/10/08 11:11:00;;;;;;;9.80;4.50;;;19.60;37.00;;;;;;5032030;28;20041;-61
2021/10/08 11:13:32;;;;;;;7.07;4.63;;;19.50;37.80;;;;;;5030755;28;20048;-61
2021/10/08 11:16:06;;;;;;;8.38;4.82;;;19.60;38.00;;;;;;5035342;28;20056;-61
2021/10/08 11:18:34;;;;;;;6.13;4.57;;;19.80;38.20;;;;;;5034093;28;20490;-61
2021/10/08 11:21:00;;;;;;;8.48;4.55;;;19.90;37.60;;;;;;5035299;28;20040;-60
2021/10/08 11:23:28;;;;;;;8.68;5.00;;;19.80;38.20;;;;;;5033605;28;20029;-60
2021/10/08 11:26:02;;;;;;;9.27;5.13;;;19.80;38.50;;;;;;5030864;28;20038;-61
2021/10/08 11:28:35;;;;;;;5.40;4.20;;;19.70;37.50;;;;;;5033352;28;20045;-60
2021/10/08 11:31:02;;;;;;;6.55;4.72;;;19.70;37.70;;;;;;5030182;28;20486;-61
2021/10/08 11:33:42;;;;;;;6.85;4.32;;;20.00;36.70;;;;;;5032164;28;20040;-61
2021/10/08 11:36:29;;;;;;;8.85;5.40;;;19.90;35.60;;;;;;5035807;28;20037;-61
2021/10/08 11:39:13;;;;;;;6.18;4.68;;;19.90;37.30;;;;;;5034889;28;20022;-61
2021/10/08 11:41:41;;;;;;;10.05;5.55;;;19.90;36.50;;;;;;5033379;28;20040;-61
2021/10/08 11:44:16;;;;;;;6.10;4.63;;;19.80;37.30;;;;;;5034164;28;20021;-61
2021/10/08 11:46:55;;;;;;;;;;;19.90;36.90;;;;;;5029465;28;20029;-61
2021/10/08 11:49:38;;;;;;;6.15;4.38;;;19.90;36.50;;;;;;5031993;28;19912;-61
2021/10/08 11:52:04;;;;;;;7.18;4.60;;;19.90;37.00;;;;;;5026568;28;20038;-61
2021/10/08 11:54:29;;;;;;;7.43;4.63;;;20.10;36.90;;;;;;5033721;28;20040;-61
2021/10/08 11:57:04;;;;;;;6.93;4.93;;;20.10;36.50;;;;;;5033740;28;20040;-61
2021/10/08 11:59:33;;;;;;;7.07;4.93;;;20.20;34.70;;;;;;5033433;28;20052;-61
2021/10/08 12:02:13;;;;;;;7.78;5.70;;;20.40;35.40;;;;;;5015673;28;20068;-61
2021/10/08 12:05:00;;;;;;;7.18;5.32;;;20.60;35.20;;;;;;5034318;28;20522;-61
2021/10/08 12:07:31;;;;;;;9.23;5.75;;;20.50;37.60;;;;;;5032209;28;20045;-61
2021/10/08 12:10:11;;;;;;;8.32;6.10;;;20.50;37.90;;;;;;5034688;28;20021;-61
2021/10/08 12:12:47;;;;;;;7.47;5.65;;;20.60;36.50;;;;;;5003814;28;20491;-61
2021/10/08 12:15:30;;;;;;;8.80;5.72;;;20.70;37.80;;;;;;5032591;28;20121;-61
2021/10/08 12:17:58;;;;;;;9.40;6.28;;;20.80;37.00;;;;;;5031703;28;20116;-61
2021/10/08 12:20:29;;;;;;;10.30;6.43;;;20.90;37.70;;;;;;5033781;28;20037;-59
2021/10/08 12:23:20;;;;;;;9.98;6.20;;;20.90;37.70;;;;;;5032006;28;20041;-60
2021/10/08 12:25:51;;;;;;;9.48;5.65;;;21.20;39.10;;;;;;5024915;28;20441;-60
2021/10/08 12:28:20;;;;;;;11.15;6.78;;;21.20;51.60;;;;;;5031186;28;20131;-60
2021/10/08 12:30:55;;;;;;;11.90;6.40;;;21.10;47.60;;;;;;5030819;28;20156;-60
2021/10/08 12:33:34;;;;;;;10.82;5.82;;;21.50;46.70;;;;;;5033347;28;20114;-60
2021/10/08 12:36:22;;;;;;;6.78;5.10;;;21.60;42.40;;;;;;5016612;28;20402;-60
2021/10/08 12:38:54;;;;;;;7.85;5.75;;;21.70;43.90;;;;;;5032848;28;20092;-60
2021/10/08 12:41:31;;;;;;;11.43;7.20;;;21.70;44.60;;;;;;5033095;28;20038;-60
2021/10/08 12:44:19;;;;;;;7.32;5.47;;;21.70;39.30;;;;;;5026285;28;20037;-60
2021/10/08 12:47:09;;;;;;;6.80;4.90;;;21.70;39.60;;;;;;5030351;28;20064;-60
2021/10/08 12:49:52;;;;;;;9.55;5.63;;;21.90;40.80;;;;;;5033004;28;20123;-60
2021/10/08 12:52:48;;;;;;;11.32;5.28;;;22.20;45.50;;;;;;5033749;28;20037;-60
2021/10/08 12:55:19;;;;;;;9.45;6.75;;;22.20;41.80;;;;;;5031237;28;20029;-60